Andover, VA

4:21 AM EDT on November 01, 2014 (GMT -0400)
Lonesome Pine | Change Station
CLOSE
Current Station
Airport
Location: Wise,
Elevation: 2684 ft
Nearby Weather Stations
Active Advisory: Winter Storm Warning

Elev 2684 ft 36.99 °N, 82.53 °W | Updated 6 minutes ago

Light Snow
Light Snow
32 °F
Feels Like 24 °F
N
10
Wind Variable Wind from NW
Gusts 16 mph

Today
High -- | Low -- °F
--% Chance of Precip.
Yesterday
High -- | Low -- °F
Precip. -- in
7:54 AM 6:32 PM
Waxing Gibbous, 64% visible
Pressure 29.83 in
Visibility 1.8 miles
Clouds Overcast 600 ft
Windchill 24 °F
Dew Point 32 °F
Humidity 100%
Rainfall 0.07 in
Snow Depth Not available.
UV 0 out of 12
Pollen .10 out of 12
Air Quality Not available.
Flu Activity Not available.
METAR KLNP 010815Z AUTO 31009G14KT 1 3/4SM -SN OVC006 00/00 A2983 RMK AO2

More Conditions Fewer Conditions

Pressure 29.83 in
Visibility 1.8 miles
Clouds Overcast 600 ft
Windchill 24 °F
Dew Point 32 °F
Humidity 100%
Rainfall 0.07 in
Snow Depth Not available.
UV 0 out of 12
Pollen .10 out of 12
Air Quality Not available.
Flu Activity Not available.
METAR KLNP 010815Z AUTO 31009G14KT 1 3/4SM -SN OVC006 00/00 A2983 RMK AO2

More Conditions Fewer Conditions

10-Day Weather Forecast

Almanac

Astronomy

Nov. 01, 2014 Rise Set
Actual Time
Civil Twilight
Nautical Twilight
Astronomical Twilight
Moon
Length of Visible Light
Length of Day
Tomorrow will be .
, % of the Moon is Illuminated

Today's Extremes

State Highs State Lows

Community

WunderPhotos

Upload Photos

1,766,866 photos uploaded!

WunderBlogs® & News

Nearby

Air Quality

  Air Quality AQ Index Pollutant
Not available.

Snow Depth

Station Depth Elevation

Earthquake Activity

City Distance Mag. Time & Date
Minimum magnitude displayed is 2.5.

Coastal Water Temperatures

Place Temperature

Nearby Weather Stations